createdAt,value
2016-12-06T00:00:36.505Z,1019.39
2016-12-06T00:01:36.477Z,1019.43
2016-12-06T00:02:36.453Z,1019.4
2016-12-06T00:03:36.427Z,1019.37
2016-12-06T00:04:36.421Z,1019.36
2016-12-06T00:05:36.579Z,1019.37
2016-12-06T00:06:36.352Z,1019.32
2016-12-06T00:07:36.334Z,1019.32
2016-12-06T00:08:36.301Z,1019.34
2016-12-06T00:09:36.276Z,1019.28
2016-12-06T00:10:36.251Z,1019.34
2016-12-06T00:11:36.226Z,1019.35
2016-12-06T00:12:36.201Z,1019.33
2016-12-06T00:13:36.178Z,1019.37
2016-12-06T00:14:36.152Z,1019.37
2016-12-06T00:15:36.127Z,1019.44
2016-12-06T00:16:36.100Z,1019.44
2016-12-06T00:17:36.078Z,1019.45
2016-12-06T00:18:36.052Z,1019.46
2016-12-06T00:19:36.026Z,1019.48
2016-12-06T00:20:36.002Z,1019.48
2016-12-06T00:21:35.977Z,1019.51
2016-12-06T00:22:35.950Z,1019.46
2016-12-06T00:23:35.927Z,1019.46
2016-12-06T00:24:35.904Z,1019.47
2016-12-06T00:25:35.877Z,1019.43
2016-12-06T00:26:35.851Z,1019.42
2016-12-06T00:27:35.827Z,1019.44
2016-12-06T00:28:35.815Z,1019.37
2016-12-06T00:29:35.779Z,1019.41
2016-12-06T00:30:35.751Z,1019.39
2016-12-06T00:31:35.727Z,1019.42
2016-12-06T00:32:35.701Z,1019.46
2016-12-06T00:33:35.681Z,1019.39
2016-12-06T00:34:35.652Z,1019.4
2016-12-06T00:35:35.626Z,1019.39
2016-12-06T00:36:35.601Z,1019.41
2016-12-06T00:37:35.577Z,1019.43
2016-12-06T00:38:35.553Z,1019.47
2016-12-06T00:39:35.528Z,1019.47
2016-12-06T00:40:35.502Z,1019.48
2016-12-06T00:41:35.478Z,1019.5
2016-12-06T00:42:35.452Z,1019.47
2016-12-06T00:43:35.426Z,1019.43
2016-12-06T00:44:35.403Z,1019.47
2016-12-06T00:45:35.377Z,1019.43
2016-12-06T00:46:35.353Z,1019.42
2016-12-06T00:47:35.329Z,1019.4
2016-12-06T00:48:35.302Z,1019.41
2016-12-06T00:49:35.277Z,1019.33
2016-12-06T00:50:35.251Z,1019.38
2016-12-06T00:51:35.226Z,1019.4
2016-12-06T00:52:35.204Z,1019.42
2016-12-06T00:53:35.177Z,1019.42
2016-12-06T00:54:35.153Z,1019.41
2016-12-06T00:55:35.126Z,1019.45
2016-12-06T00:56:35.101Z,1019.51
2016-12-06T00:57:35.077Z,1019.43
2016-12-06T00:58:35.051Z,1019.53
2016-12-06T00:59:35.026Z,1019.5
2016-12-06T01:00:35.001Z,1019.52
2016-12-06T01:01:34.976Z,1019.52
2016-12-06T01:02:34.950Z,1019.49
2016-12-06T01:03:34.926Z,1019.55
2016-12-06T01:04:34.900Z,1019.55
2016-12-06T01:05:34.876Z,1019.55
2016-12-06T01:06:34.853Z,1019.55
2016-12-06T01:07:34.828Z,1019.55
2016-12-06T01:08:34.804Z,1019.57
2016-12-06T01:09:34.776Z,1019.57
2016-12-06T01:10:34.751Z,1019.58
2016-12-06T01:11:34.726Z,1019.53
2016-12-06T01:12:34.702Z,1019.58
2016-12-06T01:13:34.676Z,1019.54
2016-12-06T01:14:34.650Z,1019.53
2016-12-06T01:15:34.627Z,1019.58
2016-12-06T01:16:34.600Z,1019.58
2016-12-06T01:17:34.578Z,1019.62
2016-12-06T01:18:34.554Z,1019.65
2016-12-06T01:19:34.527Z,1019.61
2016-12-06T01:20:34.500Z,1019.6
2016-12-06T01:21:34.476Z,1019.62
2016-12-06T01:22:34.452Z,1019.6
2016-12-06T01:23:34.427Z,1019.58
2016-12-06T01:24:34.401Z,1019.57
2016-12-06T01:25:34.376Z,1019.55
2016-12-06T01:26:34.353Z,1019.52
2016-12-06T01:27:34.329Z,1019.53
2016-12-06T01:28:34.301Z,1019.52
2016-12-06T01:29:34.276Z,1019.54
2016-12-06T01:30:34.253Z,1019.58
2016-12-06T01:31:34.228Z,1019.61
2016-12-06T01:32:34.201Z,1019.65
2016-12-06T01:33:34.176Z,1019.64
2016-12-06T01:34:34.154Z,1019.68
2016-12-06T01:35:34.133Z,1019.67
2016-12-06T01:36:34.114Z,1019.72
2016-12-06T01:37:34.080Z,1019.71
2016-12-06T01:38:34.055Z,1019.7
2016-12-06T01:39:34.029Z,1019.71
2016-12-06T01:40:34.002Z,1019.72
2016-12-06T01:41:33.979Z,1019.7
2016-12-06T01:42:33.951Z,1019.67
2016-12-06T01:43:33.927Z,1019.71
2016-12-06T01:44:33.902Z,1019.74
2016-12-06T01:45:33.881Z,1019.7
2016-12-06T01:46:33.854Z,1019.73
2016-12-06T01:47:33.828Z,1019.79
2016-12-06T01:48:33.802Z,1019.79
2016-12-06T01:49:33.785Z,1019.85
2016-12-06T01:50:33.752Z,1019.85
2016-12-06T01:51:33.730Z,1019.84
2016-12-06T01:52:33.702Z,1019.85
2016-12-06T01:53:33.676Z,1019.85
2016-12-06T01:54:33.653Z,1019.87
2016-12-06T01:55:33.626Z,1019.83
2016-12-06T01:56:33.602Z,1019.85
2016-12-06T01:57:33.582Z,1019.83
2016-12-06T01:58:33.554Z,1019.84
2016-12-06T01:59:33.527Z,1019.81
2016-12-06T02:00:33.502Z,1019.83
2016-12-06T02:01:33.479Z,1019.82
2016-12-06T02:02:33.454Z,1019.81
2016-12-06T02:03:33.430Z,1019.8
2016-12-06T02:04:33.403Z,1019.78
2016-12-06T02:05:33.377Z,1019.76
2016-12-06T02:06:33.352Z,1019.8
2016-12-06T02:07:33.328Z,1019.78
2016-12-06T02:08:33.303Z,1019.75
2016-12-06T02:09:33.279Z,1019.76
2016-12-06T02:10:33.252Z,1019.75
2016-12-06T02:11:33.228Z,1019.74
2016-12-06T02:12:33.201Z,1019.75
2016-12-06T02:13:33.178Z,1019.75
2016-12-06T02:14:33.154Z,1019.77
2016-12-06T02:15:33.127Z,1019.79
2016-12-06T02:16:33.102Z,1019.76
2016-12-06T02:17:33.079Z,1019.78
2016-12-06T02:18:33.053Z,1019.82
2016-12-06T02:19:33.026Z,1019.8
2016-12-06T02:20:33.003Z,1019.82
2016-12-06T02:21:32.978Z,1019.78
2016-12-06T02:22:32.953Z,1019.77
2016-12-06T02:23:32.929Z,1019.78
2016-12-06T02:24:32.903Z,1019.81
2016-12-06T02:25:32.878Z,1019.83
2016-12-06T02:26:32.852Z,1019.8
2016-12-06T02:27:32.826Z,1019.84
2016-12-06T02:28:32.802Z,1019.85
2016-12-06T02:29:32.778Z,1019.83
2016-12-06T02:30:32.752Z,1019.92
2016-12-06T02:31:32.731Z,1019.89
2016-12-06T02:32:32.702Z,1019.83
2016-12-06T02:33:32.678Z,1019.84
2016-12-06T02:34:32.652Z,1019.82
2016-12-06T02:35:32.627Z,1019.84
2016-12-06T02:36:32.601Z,1019.87
2016-12-06T02:37:32.577Z,1019.86
2016-12-06T02:38:32.556Z,1019.84
2016-12-06T02:39:32.528Z,1019.89
2016-12-06T02:40:32.501Z,1019.91
2016-12-06T02:41:32.476Z,1019.88
2016-12-06T02:42:32.452Z,1019.91
2016-12-06T02:43:32.435Z,1019.9
2016-12-06T02:44:32.401Z,1019.92
2016-12-06T02:45:32.378Z,1019.96
2016-12-06T02:46:32.352Z,1019.95
2016-12-06T02:47:32.325Z,1019.93
2016-12-06T02:48:32.302Z,1019.96
2016-12-06T02:49:32.276Z,1019.97
2016-12-06T02:50:32.253Z,1019.95
2016-12-06T02:51:32.225Z,1019.95
2016-12-06T02:52:32.203Z,1019.92
2016-12-06T02:53:32.176Z,1019.96
2016-12-06T02:54:32.152Z,1019.96
2016-12-06T02:55:32.125Z,1019.96
2016-12-06T02:56:32.100Z,1019.92
2016-12-06T02:57:32.075Z,1019.93
2016-12-06T02:58:32.050Z,1019.96
2016-12-06T02:59:32.026Z,1019.96
2016-12-06T03:00:32.000Z,1019.99
2016-12-06T03:01:31.974Z,1020
2016-12-06T03:02:31.948Z,1020.03
2016-12-06T03:03:31.923Z,1020.03
2016-12-06T03:04:31.899Z,1020.03
2016-12-06T03:05:31.874Z,1020.04
2016-12-06T03:06:31.848Z,1020.07
2016-12-06T03:07:31.823Z,1020.02
2016-12-06T03:08:31.800Z,1020.03
2016-12-06T03:09:31.774Z,1020
2016-12-06T03:10:31.748Z,1019.97
2016-12-06T03:11:31.722Z,1019.97
2016-12-06T03:12:31.701Z,1019.94
2016-12-06T03:13:31.671Z,1019.91
2016-12-06T03:14:31.648Z,1019.9
2016-12-06T03:15:31.621Z,1019.88
2016-12-06T03:16:31.600Z,1019.83
2016-12-06T03:17:31.572Z,1019.82
2016-12-06T03:18:31.547Z,1019.83
2016-12-06T03:19:31.520Z,1019.87
2016-12-06T03:20:31.495Z,1019.89
2016-12-06T03:21:31.471Z,1019.89
2016-12-06T03:22:31.444Z,1019.9
2016-12-06T03:23:31.420Z,1019.83
2016-12-06T03:24:31.395Z,1019.91
2016-12-06T03:25:31.369Z,1019.88
2016-12-06T03:26:31.344Z,1019.88
2016-12-06T03:27:31.320Z,1019.91
2016-12-06T03:28:31.293Z,1019.86
2016-12-06T03:29:31.268Z,1019.91
2016-12-06T03:30:31.243Z,1019.91
2016-12-06T03:31:31.217Z,1019.91
2016-12-06T03:32:31.193Z,1019.9
2016-12-06T03:33:31.169Z,1019.96
2016-12-06T03:34:31.144Z,1019.98
2016-12-06T03:35:31.116Z,1019.98
2016-12-06T03:36:31.094Z,1019.98
2016-12-06T03:37:31.068Z,1020.01
2016-12-06T03:38:31.043Z,1020.05
2016-12-06T03:39:31.019Z,1019.99
2016-12-06T03:40:30.990Z,1020.03
2016-12-06T03:41:30.967Z,1020.02
2016-12-06T03:42:30.940Z,1020.03
2016-12-06T03:43:30.916Z,1020.05
2016-12-06T03:44:30.890Z,1020.08
2016-12-06T03:45:30.865Z,1020.07
2016-12-06T03:46:30.839Z,1020.06
2016-12-06T03:47:30.813Z,1020.05
2016-12-06T03:48:30.789Z,1020.07
2016-12-06T03:49:30.764Z,1020.06
2016-12-06T03:50:30.738Z,1020.06
2016-12-06T03:51:30.713Z,1020.08
2016-12-06T03:52:30.688Z,1020.05
2016-12-06T03:53:30.668Z,1020.04
2016-12-06T03:54:30.636Z,1020.05
2016-12-06T03:55:30.612Z,1020.03
2016-12-06T03:56:30.591Z,1020.01
2016-12-06T03:57:30.562Z,1019.98
2016-12-06T03:58:30.535Z,1019.96
2016-12-06T03:59:30.511Z,1020.01
2016-12-06T04:00:30.485Z,1020.01
2016-12-06T04:01:30.459Z,1020.04
2016-12-06T04:02:30.440Z,1020
2016-12-06T04:03:30.409Z,1020.09
2016-12-06T04:04:30.384Z,1020.1
2016-12-06T04:05:30.359Z,1020.1
2016-12-06T04:06:30.333Z,1020.1
2016-12-06T04:07:30.310Z,1020.15
2016-12-06T04:08:30.284Z,1020.14
2016-12-06T04:09:30.286Z,1020.14
2016-12-06T04:10:30.235Z,1020.17
2016-12-06T04:11:30.207Z,1020.17
2016-12-06T04:12:30.186Z,1020.24
2016-12-06T04:13:30.158Z,1020.24
2016-12-06T04:14:30.131Z,1020.22
2016-12-06T04:15:30.106Z,1020.29
2016-12-06T04:16:30.081Z,1020.27
2016-12-06T04:17:30.054Z,1020.29
2016-12-06T04:18:30.029Z,1020.25
2016-12-06T04:19:30.004Z,1020.28
2016-12-06T04:20:29.979Z,1020.28
2016-12-06T04:21:29.955Z,1020.28
2016-12-06T04:22:29.929Z,1020.29
2016-12-06T04:23:29.907Z,1020.3
2016-12-06T04:24:29.879Z,1020.28
2016-12-06T04:25:29.854Z,1020.24
2016-12-06T04:26:29.828Z,1020.26
2016-12-06T04:27:29.802Z,1020.24
2016-12-06T04:28:29.779Z,1020.22
2016-12-06T04:29:29.752Z,1020.22
2016-12-06T04:30:29.725Z,1020.24
2016-12-06T04:31:29.704Z,1020.25
2016-12-06T04:32:29.676Z,1020.26
2016-12-06T04:33:29.651Z,1020.31
2016-12-06T04:34:29.625Z,1020.34
2016-12-06T04:35:29.599Z,1020.35
2016-12-06T04:36:29.575Z,1020.35
2016-12-06T04:37:29.551Z,1020.36
2016-12-06T04:38:29.523Z,1020.38
2016-12-06T04:39:29.499Z,1020.4
2016-12-06T04:40:29.474Z,1020.4
2016-12-06T04:41:29.447Z,1020.43
2016-12-06T04:42:29.422Z,1020.43
2016-12-06T04:43:29.397Z,1020.43
2016-12-06T04:44:29.373Z,1020.45
2016-12-06T04:45:29.345Z,1020.43
2016-12-06T04:46:29.326Z,1020.44
2016-12-06T04:47:29.296Z,1020.45
2016-12-06T04:48:29.271Z,1020.41
2016-12-06T04:49:29.245Z,1020.47
2016-12-06T04:50:29.223Z,1020.46
2016-12-06T04:51:29.199Z,1020.42
2016-12-06T04:52:29.170Z,1020.42
2016-12-06T04:53:29.146Z,1020.43
2016-12-06T04:54:29.121Z,1020.47
2016-12-06T04:55:29.093Z,1020.46
2016-12-06T04:56:29.067Z,1020.47
2016-12-06T04:57:29.045Z,1020.48
2016-12-06T04:58:29.018Z,1020.54
2016-12-06T04:59:28.991Z,1020.54
2016-12-06T05:00:28.966Z,1020.55
2016-12-06T05:01:28.944Z,1020.53
2016-12-06T05:02:28.915Z,1020.58
2016-12-06T05:03:28.892Z,1020.55
2016-12-06T05:04:28.871Z,1020.55
2016-12-06T05:05:28.840Z,1020.53
2016-12-06T05:06:28.814Z,1020.53
2016-12-06T05:07:28.787Z,1020.55
2016-12-06T05:08:28.763Z,1020.53
2016-12-06T05:09:28.738Z,1020.59
2016-12-06T05:10:28.711Z,1020.6
2016-12-06T05:11:28.689Z,1020.6
2016-12-06T05:12:28.661Z,1020.6
2016-12-06T05:13:28.634Z,1020.61
2016-12-06T05:14:28.611Z,1020.66
2016-12-06T05:15:28.585Z,1020.61
2016-12-06T05:16:28.559Z,1020.66
2016-12-06T05:17:28.534Z,1020.69
2016-12-06T05:18:28.507Z,1020.66
2016-12-06T05:19:28.482Z,1020.63
2016-12-06T05:20:28.459Z,1020.7
2016-12-06T05:21:28.432Z,1020.69
2016-12-06T05:22:28.405Z,1020.74
2016-12-06T05:23:28.381Z,1020.73
2016-12-06T05:24:28.356Z,1020.75
2016-12-06T05:25:28.328Z,1020.7
2016-12-06T05:26:28.304Z,1020.71
2016-12-06T05:27:28.281Z,1020.69
2016-12-06T05:28:28.255Z,1020.7
2016-12-06T05:29:28.227Z,1020.74
2016-12-06T05:30:28.203Z,1020.72
2016-12-06T05:31:28.177Z,1020.74
2016-12-06T05:32:28.152Z,1020.73
2016-12-06T05:33:28.126Z,1020.75
2016-12-06T05:34:28.101Z,1020.78
2016-12-06T05:35:28.076Z,1020.75
2016-12-06T05:36:28.051Z,1020.8
2016-12-06T05:37:28.027Z,1020.78
2016-12-06T05:38:27.999Z,1020.85
2016-12-06T05:39:27.974Z,1020.87
2016-12-06T05:40:27.948Z,1020.85
2016-12-06T05:41:27.923Z,1020.88
2016-12-06T05:42:27.900Z,1020.85
2016-12-06T05:43:27.872Z,1020.91
2016-12-06T05:44:27.845Z,1020.89
2016-12-06T05:45:27.821Z,1020.91
2016-12-06T05:46:27.798Z,1020.97
2016-12-06T05:47:27.769Z,1020.99
2016-12-06T05:48:27.743Z,1020.99
2016-12-06T05:49:27.723Z,1021.01
2016-12-06T05:50:27.695Z,1021
2016-12-06T05:51:27.669Z,1020.99
2016-12-06T05:52:27.642Z,1021.03
2016-12-06T05:53:27.617Z,1021.04
2016-12-06T05:54:27.593Z,1021.04
2016-12-06T05:55:27.565Z,1021.02
2016-12-06T05:56:27.540Z,1020.99
2016-12-06T05:57:27.516Z,1020.99
2016-12-06T05:58:27.492Z,1020.96
2016-12-06T05:59:27.463Z,1020.96
2016-12-06T06:00:27.437Z,1020.97
2016-12-06T06:01:27.414Z,1020.98
2016-12-06T06:02:27.387Z,1020.95
2016-12-06T06:03:27.363Z,1020.94
2016-12-06T06:04:27.337Z,1020.9
2016-12-06T06:05:27.313Z,1020.97
2016-12-06T06:06:27.498Z,1021
2016-12-06T06:07:27.260Z,1021.01
2016-12-06T06:08:27.238Z,1021.01
2016-12-06T06:09:27.208Z,1021.06
2016-12-06T06:10:27.181Z,1021.07
2016-12-06T06:11:27.159Z,1021.11
2016-12-06T06:12:27.132Z,1021.14
2016-12-06T06:13:27.105Z,1021.12
2016-12-06T06:14:27.080Z,1021.11
2016-12-06T06:15:27.055Z,1021.1
2016-12-06T06:16:27.027Z,1021.14
2016-12-06T06:17:27.003Z,1021.11
2016-12-06T06:18:26.977Z,1021.13
2016-12-06T06:19:26.952Z,1021.1
2016-12-06T06:20:26.926Z,1021.12
2016-12-06T06:21:26.899Z,1021.08
2016-12-06T06:22:26.875Z,1021.12
2016-12-06T06:23:26.850Z,1021.15
2016-12-06T06:24:26.828Z,1021.12
2016-12-06T06:25:26.801Z,1021.14
2016-12-06T06:26:26.776Z,1021.15
2016-12-06T06:27:26.759Z,1021.17
2016-12-06T06:28:26.723Z,1021.13
2016-12-06T06:29:26.696Z,1021.12
2016-12-06T06:30:26.669Z,1021.13
2016-12-06T06:31:26.643Z,1021.13
2016-12-06T06:32:26.653Z,1021.18
2016-12-06T06:33:26.593Z,1021.12
2016-12-06T06:34:26.566Z,1021.12
2016-12-06T06:35:26.542Z,1021.09
2016-12-06T06:36:26.516Z,1021.11
2016-12-06T06:37:26.489Z,1021.13
2016-12-06T06:38:26.466Z,1021.09
2016-12-06T06:39:26.438Z,1021.08
2016-12-06T06:40:26.412Z,1021.13
2016-12-06T06:41:26.389Z,1021.11
2016-12-06T06:42:26.360Z,1021.18
2016-12-06T06:43:26.335Z,1021.17
2016-12-06T06:44:26.309Z,1021.16
2016-12-06T06:45:26.284Z,1021.17
2016-12-06T06:46:26.259Z,1021.19
2016-12-06T06:47:26.232Z,1021.26
2016-12-06T06:48:26.208Z,1021.24
2016-12-06T06:49:26.180Z,1021.24
2016-12-06T06:50:26.155Z,1021.28
2016-12-06T06:51:26.131Z,1021.29
2016-12-06T06:52:26.103Z,1021.25
2016-12-06T06:53:26.077Z,1021.25
2016-12-06T06:54:26.054Z,1021.26
2016-12-06T06:55:26.027Z,1021.2
2016-12-06T06:56:26.001Z,1021.19
2016-12-06T06:57:25.975Z,1021.2
2016-12-06T06:58:25.949Z,1021.17
2016-12-06T06:59:25.925Z,1021.16
2016-12-06T07:00:25.902Z,1021.14
2016-12-06T07:01:25.873Z,1021.14
2016-12-06T07:02:25.847Z,1021.14
2016-12-06T07:03:25.820Z,1021.16
2016-12-06T07:04:25.796Z,1021.15
2016-12-06T07:05:25.769Z,1021.15
2016-12-06T07:06:25.742Z,1021.2
2016-12-06T07:07:25.719Z,1021.15
2016-12-06T07:08:25.691Z,1021.24
2016-12-06T07:09:25.666Z,1021.22
2016-12-06T07:10:25.642Z,1021.24
2016-12-06T07:11:25.615Z,1021.2
2016-12-06T07:12:25.588Z,1021.23
2016-12-06T07:13:25.573Z,1021.24
2016-12-06T07:14:25.539Z,1021.24
2016-12-06T07:15:25.512Z,1021.26
2016-12-06T07:16:25.486Z,1021.25
2016-12-06T07:17:25.460Z,1021.27
2016-12-06T07:18:25.435Z,1021.27
2016-12-06T07:19:25.410Z,1021.26
2016-12-06T07:20:25.383Z,1021.29
2016-12-06T07:21:25.359Z,1021.3
2016-12-06T07:22:25.332Z,1021.28
2016-12-06T07:23:25.306Z,1021.33
2016-12-06T07:24:25.282Z,1021.33
2016-12-06T07:25:25.256Z,1021.31
2016-12-06T07:26:25.232Z,1021.29
2016-12-06T07:27:25.203Z,1021.32
2016-12-06T07:28:25.178Z,1021.28
2016-12-06T07:29:25.152Z,1021.33
2016-12-06T07:30:25.127Z,1021.31
2016-12-06T07:31:25.103Z,1021.33
2016-12-06T07:32:25.077Z,1021.33
2016-12-06T07:33:25.049Z,1021.35
2016-12-06T07:34:25.025Z,1021.41
2016-12-06T07:35:24.998Z,1021.39
2016-12-06T07:36:24.972Z,1021.43
2016-12-06T07:37:24.949Z,1021.39
2016-12-06T07:38:24.923Z,1021.4
2016-12-06T07:39:24.900Z,1021.47
2016-12-06T07:40:24.874Z,1021.44
2016-12-06T07:41:24.909Z,1021.51
2016-12-06T07:42:24.822Z,1021.54
2016-12-06T07:43:24.796Z,1021.54
2016-12-06T07:44:24.772Z,1021.6
2016-12-06T07:45:24.746Z,1021.64
2016-12-06T07:46:24.718Z,1021.67
2016-12-06T07:47:24.693Z,1021.63
2016-12-06T07:48:24.670Z,1021.67
2016-12-06T07:49:24.643Z,1021.67
2016-12-06T07:50:24.617Z,1021.68
2016-12-06T07:51:24.590Z,1021.75
2016-12-06T07:52:24.567Z,1021.74
2016-12-06T07:53:24.543Z,1021.73
2016-12-06T07:54:24.515Z,1021.74
2016-12-06T07:55:24.491Z,1021.79
2016-12-06T07:56:24.468Z,1021.76
2016-12-06T07:57:24.438Z,1021.77
2016-12-06T07:58:24.412Z,1021.8
2016-12-06T07:59:24.388Z,1021.76
2016-12-06T08:00:24.363Z,1021.76
2016-12-06T08:01:24.339Z,1021.81
2016-12-06T08:02:24.312Z,1021.8
2016-12-06T08:03:24.289Z,1021.78
2016-12-06T08:04:24.265Z,1021.78
2016-12-06T08:05:24.237Z,1021.83
2016-12-06T08:06:24.414Z,1021.8
2016-12-06T08:07:24.188Z,1021.85
2016-12-06T08:08:24.164Z,1021.88
2016-12-06T08:09:24.136Z,1021.9
2016-12-06T08:10:24.136Z,1021.9
2016-12-06T08:11:24.096Z,1021.94
2016-12-06T08:12:24.063Z,1021.98
2016-12-06T08:13:24.034Z,1021.99
2016-12-06T08:14:24.026Z,1022.03
2016-12-06T08:15:23.991Z,1022.03
2016-12-06T08:16:23.964Z,1022.06
2016-12-06T08:17:23.934Z,1022.09
2016-12-06T08:18:23.911Z,1022.04
2016-12-06T08:19:23.887Z,1022.02
2016-12-06T08:20:23.862Z,1021.98
2016-12-06T08:21:23.836Z,1022.02
2016-12-06T08:22:23.863Z,1022.02
2016-12-06T08:23:23.787Z,1022.01
2016-12-06T08:24:23.762Z,1022.03
2016-12-06T08:25:23.737Z,1022.02
2016-12-06T08:26:23.712Z,1022.07
2016-12-06T08:27:23.687Z,1022.02
2016-12-06T08:28:23.661Z,1022.09
2016-12-06T08:29:23.638Z,1022.11
2016-12-06T08:30:23.614Z,1022.1
2016-12-06T08:31:23.589Z,1022.09
2016-12-06T08:32:23.564Z,1022.08
2016-12-06T08:33:23.539Z,1022.08
2016-12-06T08:34:23.515Z,1022.11
2016-12-06T08:35:23.493Z,1022.13
2016-12-06T08:36:23.467Z,1022.13
2016-12-06T08:37:23.440Z,1022.17
2016-12-06T08:38:23.419Z,1022.13
2016-12-06T08:39:23.391Z,1022.13
2016-12-06T08:40:23.367Z,1022.12
2016-12-06T08:41:23.392Z,1022.17
2016-12-06T08:42:23.318Z,1022.14
2016-12-06T08:43:23.292Z,1022.11
2016-12-06T08:44:23.271Z,1022.14
2016-12-06T08:45:23.245Z,1022.13
2016-12-06T08:46:23.220Z,1022.17
2016-12-06T08:47:23.195Z,1022.18
2016-12-06T08:48:23.175Z,1022.21
2016-12-06T08:49:23.147Z,1022.23
2016-12-06T08:50:23.124Z,1022.25
2016-12-06T08:51:23.099Z,1022.25
2016-12-06T08:52:23.075Z,1022.28
2016-12-06T08:53:23.050Z,1022.27
2016-12-06T08:54:23.026Z,1022.27
2016-12-06T08:55:23.004Z,1022.32
2016-12-06T08:56:22.979Z,1022.33
2016-12-06T08:57:22.953Z,1022.29
2016-12-06T08:58:22.930Z,1022.26
2016-12-06T08:59:22.905Z,1022.24
2016-12-06T09:00:22.883Z,1022.21
2016-12-06T09:01:22.858Z,1022.18
2016-12-06T09:02:22.837Z,1022.25
2016-12-06T09:03:22.809Z,1022.19
2016-12-06T09:04:22.785Z,1022.25
2016-12-06T09:05:22.761Z,1022.21
2016-12-06T09:06:22.738Z,1022.2
2016-12-06T09:07:22.714Z,1022.23
2016-12-06T09:08:22.689Z,1022.23
2016-12-06T09:09:22.666Z,1022.27
2016-12-06T09:10:22.643Z,1022.29
2016-12-06T09:11:22.619Z,1022.31
2016-12-06T09:12:22.595Z,1022.31
2016-12-06T09:13:22.572Z,1022.31
2016-12-06T09:14:22.549Z,1022.34
2016-12-06T09:15:22.523Z,1022.27
2016-12-06T09:16:22.500Z,1022.29
2016-12-06T09:17:22.476Z,1022.3
2016-12-06T09:18:22.456Z,1022.3
2016-12-06T09:19:22.428Z,1022.34
2016-12-06T09:20:22.415Z,1022.29
2016-12-06T09:21:22.386Z,1022.28
2016-12-06T09:22:22.389Z,1022.28
2016-12-06T09:23:22.338Z,1022.32
2016-12-06T09:24:22.312Z,1022.34
2016-12-06T09:25:22.289Z,1022.35
2016-12-06T09:26:22.265Z,1022.36
2016-12-06T09:27:22.243Z,1022.41
2016-12-06T09:28:22.219Z,1022.39
2016-12-06T09:29:22.196Z,1022.4
2016-12-06T09:30:22.171Z,1022.33
2016-12-06T09:31:22.149Z,1022.32
2016-12-06T09:32:22.125Z,1022.34
2016-12-06T09:33:22.102Z,1022.38
2016-12-06T09:34:22.080Z,1022.39
2016-12-06T09:35:22.057Z,1022.41
2016-12-06T09:36:22.035Z,1022.42
2016-12-06T09:37:22.012Z,1022.45
2016-12-06T09:38:21.989Z,1022.47
2016-12-06T09:39:21.969Z,1022.45
2016-12-06T09:40:21.944Z,1022.42
2016-12-06T09:41:21.922Z,1022.41
2016-12-06T09:42:21.900Z,1022.38
2016-12-06T09:43:21.878Z,1022.36
2016-12-06T09:44:21.855Z,1022.36
2016-12-06T09:45:21.835Z,1022.38
2016-12-06T09:46:21.812Z,1022.36
2016-12-06T09:47:21.795Z,1022.36
2016-12-06T09:48:21.771Z,1022.39
2016-12-06T09:49:21.758Z,1022.43
2016-12-06T09:50:21.731Z,1022.41
2016-12-06T09:51:21.709Z,1022.51
2016-12-06T09:52:21.691Z,1022.52
2016-12-06T09:53:21.667Z,1022.57
2016-12-06T09:54:21.648Z,1022.53
2016-12-06T09:55:21.632Z,1022.5
2016-12-06T09:56:21.609Z,1022.5
2016-12-06T09:57:21.593Z,1022.48
2016-12-06T09:58:21.572Z,1022.48
2016-12-06T09:59:21.552Z,1022.47
2016-12-06T10:00:21.536Z,1022.54
2016-12-06T10:01:21.519Z,1022.49
2016-12-06T10:02:21.498Z,1022.52
2016-12-06T10:03:21.481Z,1022.46
2016-12-06T10:04:21.463Z,1022.45
2016-12-06T10:05:21.496Z,1022.45
2016-12-06T10:06:21.631Z,1022.45
2016-12-06T10:07:21.415Z,1022.51
2016-12-06T10:08:21.401Z,1022.48
2016-12-06T10:09:21.379Z,1022.48
2016-12-06T10:10:21.374Z,1022.47
2016-12-06T10:11:21.347Z,1022.48
2016-12-06T10:12:21.335Z,1022.48
2016-12-06T10:13:21.317Z,1022.48
2016-12-06T10:14:21.300Z,1022.48
2016-12-06T10:15:21.315Z,1022.51
2016-12-06T10:16:21.270Z,1022.49
2016-12-06T10:17:21.257Z,1022.48
2016-12-06T10:18:21.242Z,1022.48
2016-12-06T10:19:21.225Z,1022.48
2016-12-06T10:20:21.210Z,1022.5
2016-12-06T10:21:21.196Z,1022.51
2016-12-06T10:22:21.180Z,1022.44
2016-12-06T10:23:21.166Z,1022.48
2016-12-06T10:24:21.151Z,1022.5
2016-12-06T10:25:21.138Z,1022.49
2016-12-06T10:26:21.121Z,1022.46
2016-12-06T10:27:21.111Z,1022.5
2016-12-06T10:28:21.096Z,1022.44
2016-12-06T10:29:21.079Z,1022.47
2016-12-06T10:30:21.087Z,1022.48
2016-12-06T10:31:21.053Z,1022.47
2016-12-06T10:32:21.035Z,1022.52
2016-12-06T10:33:21.021Z,1022.56
2016-12-06T10:34:21.014Z,1022.54
2016-12-06T10:35:20.995Z,1022.55
2016-12-06T10:36:20.991Z,1022.56
2016-12-06T10:37:20.967Z,1022.55
2016-12-06T10:38:20.955Z,1022.54
2016-12-06T10:39:20.941Z,1022.53
2016-12-06T10:40:20.927Z,1022.55
2016-12-06T10:41:20.914Z,1022.47
2016-12-06T10:42:20.899Z,1022.48
2016-12-06T10:43:20.886Z,1022.51
2016-12-06T10:44:20.875Z,1022.5
2016-12-06T10:45:20.858Z,1022.5
2016-12-06T10:46:20.848Z,1022.51
2016-12-06T10:47:20.833Z,1022.51
2016-12-06T10:48:20.820Z,1022.54
2016-12-06T10:49:20.808Z,1022.53
2016-12-06T10:50:20.796Z,1022.55
2016-12-06T10:51:20.782Z,1022.61
2016-12-06T10:52:20.770Z,1022.65
2016-12-06T10:53:20.755Z,1022.62
2016-12-06T10:54:20.741Z,1022.68
2016-12-06T10:55:20.731Z,1022.7
2016-12-06T10:56:20.718Z,1022.7
2016-12-06T10:57:20.706Z,1022.7
2016-12-06T10:58:20.695Z,1022.75
2016-12-06T10:59:20.682Z,1022.69
2016-12-06T11:00:20.721Z,1022.71
2016-12-06T11:01:20.671Z,1022.68
2016-12-06T11:02:20.650Z,1022.67
2016-12-06T11:03:20.638Z,1022.65
2016-12-06T11:04:20.625Z,1022.68
2016-12-06T11:05:20.614Z,1022.7
2016-12-06T11:06:20.602Z,1022.72
2016-12-06T11:07:20.592Z,1022.76
2016-12-06T11:08:20.579Z,1022.73
2016-12-06T11:09:20.569Z,1022.76
2016-12-06T11:10:20.560Z,1022.74
2016-12-06T11:11:20.547Z,1022.7
2016-12-06T11:12:20.535Z,1022.69
2016-12-06T11:13:20.527Z,1022.69
2016-12-06T11:14:20.514Z,1022.71
2016-12-06T11:15:20.507Z,1022.67
2016-12-06T11:16:20.495Z,1022.68
2016-12-06T11:17:20.484Z,1022.7
2016-12-06T11:18:20.474Z,1022.67
2016-12-06T11:19:20.464Z,1022.67
2016-12-06T11:20:20.453Z,1022.66
2016-12-06T11:21:20.441Z,1022.66
2016-12-06T11:22:20.432Z,1022.61
2016-12-06T11:23:20.421Z,1022.59
2016-12-06T11:24:20.410Z,1022.57
2016-12-06T11:25:20.399Z,1022.55
2016-12-06T11:26:20.388Z,1022.59
2016-12-06T11:27:20.376Z,1022.6
2016-12-06T11:28:20.366Z,1022.6
2016-12-06T11:29:20.354Z,1022.61
2016-12-06T11:30:20.341Z,1022.63
2016-12-06T11:31:20.328Z,1022.55
2016-12-06T11:32:20.316Z,1022.53
2016-12-06T11:33:20.303Z,1022.57
2016-12-06T11:34:20.291Z,1022.51
2016-12-06T11:35:20.280Z,1022.5
2016-12-06T11:36:20.265Z,1022.53
2016-12-06T11:37:20.252Z,1022.52
2016-12-06T11:38:20.238Z,1022.57
2016-12-06T11:39:20.224Z,1022.53
2016-12-06T11:40:20.210Z,1022.58
2016-12-06T11:41:20.196Z,1022.6
2016-12-06T11:42:20.183Z,1022.62
2016-12-06T11:43:20.219Z,1022.6
2016-12-06T11:44:20.154Z,1022.6
2016-12-06T11:45:20.146Z,1022.58
2016-12-06T11:46:20.126Z,1022.59
2016-12-06T11:47:20.113Z,1022.57
2016-12-06T11:48:20.098Z,1022.54
2016-12-06T11:49:20.079Z,1022.56
2016-12-06T11:50:20.065Z,1022.54
2016-12-06T11:51:20.051Z,1022.59
2016-12-06T11:52:20.034Z,1022.57
2016-12-06T11:53:20.019Z,1022.61
2016-12-06T11:54:20.006Z,1022.65
2016-12-06T11:55:19.990Z,1022.68
2016-12-06T11:56:19.975Z,1022.72
2016-12-06T11:57:19.957Z,1022.74
2016-12-06T11:58:19.945Z,1022.7
2016-12-06T11:59:19.926Z,1022.74
2016-12-06T12:00:19.911Z,1022.72
2016-12-06T12:01:19.894Z,1022.67
2016-12-06T12:02:19.879Z,1022.66
2016-12-06T12:03:19.866Z,1022.67
2016-12-06T12:04:19.846Z,1022.72
2016-12-06T12:05:19.833Z,1022.74
2016-12-06T12:06:20.020Z,1022.73
2016-12-06T12:07:19.800Z,1022.73
2016-12-06T12:08:19.785Z,1022.75